KILN/ILN METAR and TAF weather

Enter ICAO airport designator
Station Type Date Time Source
KILN METAR 2020/11/25 21:24 UTC NOAA

KILN 252124Z AUTO 15010KT 10SM BKN027 BKN032 OVC041 11/09 A2982 RMK AO2 T01110094 $


Station Type Date Time Source
KILN Decoded METAR 2020/11/25 21:24 UTC NOAA

WILMINGTON INDUSTRIAL AIRPORT , OH, United States (KILN) 39-26N 083-47W 332M
Nov 25, 2020 - 04:24 PM EST / 2020.11.25 2124 UTC
Wind: from the SSE (150 degrees) at 12 MPH (10 KT):0
Visibility: 10 mile(s):0
Sky conditions: overcast
Temperature: 52.0 F (11.1 C)
Dew Point: 48.9 F (9.4 C)
Relative Humidity: 89%
Pressure (altimeter): 29.82 in. Hg (1009 hPa)
ob: KILN 252124Z AUTO 15010KT 10SM BKN027 BKN032 OVC041 11/09 A2982 RMK AO2 T01110094
cycle: 21

Station Type Date Time Source
KILN TAF 2020/11/25 21:06 UTC NOAA

TAF
AMD KILN 252103Z 2521/2618 17011G19KT P6SM VCSH BKN023 OVC030 WS020/20045KT
FM260100 18014G24KT 6SM SHRA BR OVC015 WS020/21045KT
FM260400 21013G30KT P6SM OVC015
FM261200 24009KT P6SM OVC015

Example: see airport list